Time;durP1;ratioP1;P1;durP2;ratioP2;P2;SDS_P1;SDS_P2;PMS_P1;PMS_P2;Temp;Humidity;BMP_temperature;BMP_pressure;BME280_temperature;BME280_humidity;BME280_pressure;Samples;Min_cycle;Max_cycle;Signal;HPM_P1;HPM_P2
2021/01/25 12:46:09;;;;;;;4.68;2.00;;;21.00;47.10;;;;;;5110154;27;20403;-40
2021/01/25 12:48:35;;;;;;;6.20;2.50;;;21.00;47.20;;;;;;5109536;28;20026;-43
2021/01/25 12:51:02;;;;;;;2.00;1.80;;;21.00;47.20;;;;;;5109364;28;20107;-44
2021/01/25 12:53:28;;;;;;;4.50;1.63;;;21.10;47.00;;;;;;5110146;28;20028;-34
2021/01/25 12:55:53;;;;;;;5.68;1.50;;;21.10;46.10;;;;;;5108694;28;20024;-38
2021/01/25 12:58:19;;;;;;;2.53;1.92;;;21.00;46.00;;;;;;5109075;28;20032;-37
2021/01/25 13:00:45;;;;;;;1.75;1.52;;;21.10;46.20;;;;;;5106768;28;20565;-36
2021/01/25 13:03:11;;;;;;;3.75;1.60;;;21.20;46.40;;;;;;5116270;27;20028;-34
2021/01/25 13:05:37;;;;;;;3.13;1.73;;;21.20;46.20;;;;;;5115645;28;20047;-45
2021/01/25 13:08:04;;;;;;;3.85;1.83;;;21.30;46.70;;;;;;5116150;28;20491;-47
2021/01/25 13:10:30;;;;;;;2.00;1.80;;;21.30;46.10;;;;;;5116101;27;20055;-37
2021/01/25 13:12:55;;;;;;;2.42;2.22;;;21.20;46.90;;;;;;5115818;28;20019;-37
2021/01/25 13:15:23;;;;;;;2.17;1.65;;;21.30;45.90;;;;;;5116238;27;20032;-49
2021/01/25 13:17:50;;;;;;;4.82;1.90;;;21.30;46.60;;;;;;5115328;28;20035;-34
2021/01/25 13:20:20;;;;;;;1.63;1.48;;;21.40;46.00;;;;;;5115110;28;20047;-34
2021/01/25 13:22:46;;;;;;;2.97;1.58;;;21.50;46.20;;;;;;5115686;28;20020;-42
2021/01/25 13:25:12;;;;;;;3.90;1.80;;;21.50;46.30;;;;;;5115838;28;20081;-38
2021/01/25 13:27:38;;;;;;;3.83;1.30;;;21.60;47.20;;;;;;5115129;28;20495;-35
2021/01/25 13:30:05;;;;;;;2.53;1.75;;;21.60;46.80;;;;;;5115591;28;20051;-40
2021/01/25 13:32:31;;;;;;;3.63;1.98;;;21.60;47.00;;;;;;5115633;27;20492;-37
2021/01/25 13:34:57;;;;;;;4.13;1.98;;;21.60;46.90;;;;;;5115393;28;20146;-38
2021/01/25 13:37:23;;;;;;;7.60;2.13;;;21.60;46.80;;;;;;5115574;28;20027;-45
2021/01/25 13:39:50;;;;;;;4.50;1.98;;;21.60;46.40;;;;;;5115777;27;20032;-44
2021/01/25 13:42:15;;;;;;;3.17;1.55;;;21.70;46.70;;;;;;5115668;28;20164;-39
2021/01/25 13:44:41;;;;;;;3.80;1.73;;;21.70;46.70;;;;;;5115034;28;20393;-32
2021/01/25 13:47:07;;;;;;;6.38;1.92;;;21.80;46.60;;;;;;5115450;27;20049;-32
2021/01/25 13:49:33;;;;;;;2.15;1.83;;;21.80;46.70;;;;;;5115158;28;20102;-32
2021/01/25 13:51:59;;;;;;;2.45;1.52;;;21.80;46.50;;;;;;5114862;28;20168;-44
2021/01/25 13:54:25;;;;;;;4.22;2.30;;;21.80;46.90;;;;;;5115236;27;20043;-44
2021/01/25 13:56:51;;;;;;;3.35;1.60;;;21.80;46.60;;;;;;5104994;27;20012;-44
2021/01/25 13:59:17;;;;;;;1.90;1.50;;;21.90;46.60;;;;;;5101197;28;20016;-42
2021/01/25 14:01:43;;;;;;;4.05;1.65;;;21.90;46.70;;;;;;5101574;28;20015;-35
2021/01/25 14:04:09;;;;;;;2.10;1.73;;;21.90;46.60;;;;;;5101546;28;20028;-33
2021/01/25 14:06:35;;;;;;;2.10;1.58;;;21.90;46.50;;;;;;5100954;28;20036;-33
2021/01/25 14:09:01;;;;;;;4.03;2.08;;;21.90;46.30;;;;;;5101489;28;21307;-31
2021/01/25 14:11:26;;;;;;;1.50;1.40;;;21.90;46.40;;;;;;5101027;28;20472;-35
2021/01/25 14:13:53;;;;;;;3.85;1.38;;;21.90;46.00;;;;;;5101317;28;20016;-34
2021/01/25 14:16:19;;;;;;;3.60;1.58;;;21.90;45.80;;;;;;5100963;28;20020;-32
2021/01/25 14:18:46;;;;;;;2.08;1.67;;;21.90;46.80;;;;;;5101145;28;20043;-37
2021/01/25 14:21:12;;;;;;;2.65;1.70;;;21.90;46.10;;;;;;5101391;28;20056;-44
2021/01/25 14:23:37;;;;;;;2.05;1.60;;;21.90;45.70;;;;;;5101434;28;20527;-33
2021/01/25 14:26:05;;;;;;;1.30;1.00;;;21.90;45.90;;;;;;5100975;28;20089;-38
2021/01/25 14:28:31;;;;;;;2.63;1.98;;;21.90;46.00;;;;;;5100040;28;20048;-50
2021/01/25 14:30:57;;;;;;;1.52;1.40;;;21.90;45.40;;;;;;5100365;28;20032;-46
2021/01/25 14:33:24;;;;;;;1.92;1.30;;;21.90;45.40;;;;;;5100598;28;20039;-39
2021/01/25 14:35:51;;;;;;;5.10;2.10;;;21.90;45.60;;;;;;5100501;28;20108;-39
2021/01/25 14:38:17;;;;;;;3.33;1.60;;;21.90;45.80;;;;;;5100739;28;20497;-39
2021/01/25 14:40:43;;;;;;;4.25;1.98;;;21.90;45.50;;;;;;5100659;28;20058;-34
2021/01/25 14:43:09;;;;;;;3.00;1.92;;;21.90;45.50;;;;;;5100798;28;20051;-31
2021/01/25 14:45:35;;;;;;;1.92;1.70;;;21.90;45.50;;;;;;5100130;28;20048;-47
2021/01/25 14:48:02;;;;;;;3.33;1.80;;;21.90;45.90;;;;;;5100183;28;20020;-34
2021/01/25 14:50:29;;;;;;;3.15;1.42;;;21.80;45.90;;;;;;5100686;28;20023;-32
2021/01/25 14:52:56;;;;;;;1.33;1.23;;;21.80;45.70;;;;;;5100413;28;20031;-37
2021/01/25 14:55:24;;;;;;;1.80;1.40;;;21.80;45.80;;;;;;5100222;28;20016;-42
2021/01/25 14:57:50;;;;;;;7.00;1.42;;;21.80;45.50;;;;;;5100223;28;20480;-35
2021/01/25 15:00:19;;;;;;;3.08;1.40;;;21.80;45.60;;;;;;5100170;28;20040;-33
2021/01/25 15:02:46;;;;;;;1.88;0.90;;;21.80;44.60;;;;;;5100145;28;20385;-36
2021/01/25 15:05:13;;;;;;;1.00;1.00;;;21.80;44.40;;;;;;5099134;28;20020;-41
2021/01/25 15:07:39;;;;;;;0.95;0.90;;;21.80;44.30;;;;;;5098486;28;20035;-42
2021/01/25 15:10:06;;;;;;;2.15;1.20;;;21.80;44.30;;;;;;5099769;28;20028;-33
2021/01/25 15:12:32;;;;;;;3.65;1.00;;;21.80;44.20;;;;;;5099813;28;20068;-37
2021/01/25 15:14:58;;;;;;;1.33;1.17;;;21.80;44.90;;;;;;5099298;28;20047;-32
2021/01/25 15:17:24;;;;;;;4.68;1.30;;;21.80;44.80;;;;;;5099748;28;20122;-33
2021/01/25 15:19:50;;;;;;;1.38;1.27;;;21.80;44.70;;;;;;5099771;28;20034;-38
2021/01/25 15:22:16;;;;;;;2.92;1.25;;;21.80;43.90;;;;;;5099571;28;20121;-41
2021/01/25 15:24:42;;;;;;;4.15;1.67;;;21.80;45.00;;;;;;5099729;28;20096;-43
2021/01/25 15:27:07;;;;;;;1.48;1.30;;;21.80;44.60;;;;;;5099895;28;20020;-32
2021/01/25 15:29:33;;;;;;;1.95;0.90;;;21.80;44.50;;;;;;5099259;28;20046;-31
2021/01/25 15:31:59;;;;;;;1.92;0.90;;;21.80;43.60;;;;;;5099654;28;20509;-39
2021/01/25 15:34:25;;;;;;;2.80;1.20;;;21.80;43.50;;;;;;5099811;28;20113;-43
2021/01/25 15:36:51;;;;;;;1.65;1.10;;;21.80;43.50;;;;;;5099825;28;20043;-43
2021/01/25 15:39:17;;;;;;;1.15;0.98;;;21.80;43.50;;;;;;5098974;28;20040;-43
2021/01/25 15:41:43;;;;;;;3.13;1.40;;;21.80;43.20;;;;;;5099655;28;20032;-44
2021/01/25 15:44:11;;;;;;;3.55;1.00;;;21.80;43.20;;;;;;5098984;28;20051;-41
2021/01/25 15:46:37;;;;;;;2.78;1.13;;;21.80;43.70;;;;;;5099347;28;20473;-42
2021/01/25 15:49:03;;;;;;;2.17;1.42;;;21.80;43.30;;;;;;5098320;28;20038;-37
2021/01/25 15:51:30;;;;;;;3.95;1.00;;;21.70;43.90;;;;;;5098786;28;20129;-32
2021/01/25 15:53:56;;;;;;;2.60;1.02;;;21.80;43.60;;;;;;5098629;28;20028;-44
2021/01/25 15:56:22;;;;;;;2.28;0.93;;;21.80;43.20;;;;;;5098945;28;20432;-42
2021/01/25 15:58:47;;;;;;;3.33;0.90;;;21.80;44.30;;;;;;5099539;28;20024;-43
2021/01/25 16:01:13;;;;;;;5.05;1.30;;;21.80;42.80;;;;;;5097334;28;20076;-34
2021/01/25 16:03:39;;;;;;;2.05;0.77;;;21.80;43.00;;;;;;5092286;28;20047;-37
2021/01/25 16:06:12;;;;;;;5.13;1.30;;;21.80;42.80;;;;;;5092952;28;20042;-33
2021/01/25 16:08:39;;;;;;;4.43;1.08;;;21.80;43.70;;;;;;5092721;28;20418;-39
2021/01/25 16:11:06;;;;;;;3.03;2.15;;;21.80;42.80;;;;;;5084368;28;20056;-44
2021/01/25 16:13:34;;;;;;;4.35;1.98;;;21.60;43.40;;;;;;5072210;28;20024;-44
2021/01/25 16:16:01;;;;;;;3.38;2.63;;;21.60;42.90;;;;;;5076433;28;20115;-33
2021/01/25 16:18:27;;;;;;;7.20;2.00;;;21.50;42.00;;;;;;5092710;28;20085;-54
2021/01/25 16:20:54;;;;;;;3.17;1.98;;;21.50;42.20;;;;;;5092491;28;20494;-38
2021/01/25 16:23:19;;;;;;;3.38;2.38;;;21.40;42.70;;;;;;5092328;28;20038;-34
2021/01/25 16:25:45;;;;;;;3.08;1.98;;;21.60;42.60;;;;;;5092839;28;20455;-37
2021/01/25 16:28:11;;;;;;;1.77;1.48;;;21.60;42.50;;;;;;5079523;28;20024;-35
2021/01/25 16:30:37;;;;;;;2.65;1.65;;;21.70;42.20;;;;;;5072453;28;20103;-37
